sensor_id;sensor_type;location;lat;lon;timestamp;pressure;altitude;pressure_sealevel;temperature;humidity
70072;BME280;57434;42.794;23.302;2023-05-09T01:46:20;95813.25;;;11.03;nan
70072;BME280;57434;42.794;23.302;2023-05-09T02:30:06;95826.84;;;11.30;nan
70072;BME280;57434;42.794;23.302;2023-05-09T02:31:10;95815.28;;;11.23;nan
70072;BME280;57434;42.794;23.302;2023-05-09T02:32:15;95822.25;;;11.33;nan
70072;BME280;57434;42.794;23.302;2023-05-09T02:33:18;95934.94;;;12.01;nan
70072;BME280;57434;42.794;23.302;2023-05-09T02:34:20;95934.81;;;11.90;nan
70072;BME280;57434;42.794;23.302;2023-05-09T02:35:25;95849.22;;;11.04;nan
70072;BME280;57434;42.794;23.302;2023-05-09T02:40:35;95808.97;;;10.87;nan
70072;BME280;57434;42.794;23.302;2023-05-09T02:46:45;95924.00;;;11.83;nan
70072;BME280;57434;42.794;23.302;2023-05-09T02:47:47;95845.94;;;11.26;nan
70072;BME280;57434;42.794;23.302;2023-05-09T02:48:49;95952.22;;;11.94;nan
70072;BME280;57434;42.794;23.302;2023-05-09T02:49:51;95854.22;;;11.35;nan
70072;BME280;57434;42.794;23.302;2023-05-09T02:50:53;95917.28;;;11.75;nan
70072;BME280;57434;42.794;23.302;2023-05-09T02:51:55;95850.16;;;11.36;nan
70072;BME280;57434;42.794;23.302;2023-05-09T02:56:02;95946.28;;;11.66;nan
70072;BME280;57434;42.794;23.302;2023-05-09T03:01:20;95947.28;;;11.43;nan
70072;BME280;57434;42.794;23.302;2023-05-09T03:02:22;95956.91;;;11.57;nan
70072;BME280;57434;42.794;23.302;2023-05-09T03:03:24;95950.16;;;11.48;nan
70072;BME280;57434;42.794;23.302;2023-05-09T03:04:26;95948.34;;;11.45;nan
70072;BME280;57434;42.794;23.302;2023-05-09T03:05:28;95931.41;;;11.40;nan
70072;BME280;57434;42.794;23.302;2023-05-09T03:13:41;95950.56;;;11.41;nan
70072;BME280;57434;42.794;23.302;2023-05-09T03:14:43;95968.97;;;11.42;nan
70072;BME280;57434;42.794;23.302;2023-05-09T03:15:45;95967.84;;;11.34;nan
70072;BME280;57434;42.794;23.302;2023-05-09T03:32:12;95860.25;;;10.88;nan
70072;BME280;57434;42.794;23.302;2023-05-09T03:33:15;95919.25;;;11.28;nan
70072;BME280;57434;42.794;23.302;2023-05-09T03:34:17;95850.56;;;10.89;nan
70072;BME280;57434;42.794;23.302;2023-05-09T03:35:19;95973.63;;;11.66;nan
70072;BME280;57434;42.794;23.302;2023-05-09T03:36:21;95881.94;;;11.07;nan
70072;BME280;57434;42.794;23.302;2023-05-09T03:37:23;95859.44;;;11.02;nan
70072;BME280;57434;42.794;23.302;2023-05-09T03:38:27;95982.00;;;11.80;nan
70072;BME280;57434;42.794;23.302;2023-05-09T03:41:32;95864.97;;;11.16;nan
70072;BME280;57434;42.794;23.302;2023-05-09T03:45:39;95939.41;;;11.67;nan
70072;BME280;57434;42.794;23.302;2023-05-09T03:47:42;95901.63;;;11.28;nan
70072;BME280;57434;42.794;23.302;2023-05-09T03:48:44;95976.69;;;11.88;nan
70072;BME280;57434;42.794;23.302;2023-05-09T03:53:53;95967.44;;;11.82;nan
70072;BME280;57434;42.794;23.302;2023-05-09T03:57:59;95861.09;;;11.14;nan
70072;BME280;57434;42.794;23.302;2023-05-09T03:59:01;95855.22;;;11.12;nan
70072;BME280;57434;42.794;23.302;2023-05-09T04:00:04;95966.88;;;11.78;nan
70072;BME280;57434;42.794;23.302;2023-05-09T04:01:06;95973.63;;;11.66;nan
70072;BME280;57434;42.794;23.302;2023-05-09T04:08:19;95882.88;;;10.99;nan
70072;BME280;57434;42.794;23.302;2023-05-09T04:09:21;95989.56;;;11.74;nan
70072;BME280;57434;42.794;23.302;2023-05-09T04:10:23;95990.97;;;11.64;nan
70072;BME280;57434;42.794;23.302;2023-05-09T04:11:25;95877.25;;;10.99;nan
70072;BME280;57434;42.794;23.302;2023-05-09T04:12:27;95998.16;;;11.85;nan
70072;BME280;57434;42.794;23.302;2023-05-09T04:14:30;95866.06;;;11.04;nan
70072;BME280;57434;42.794;23.302;2023-05-09T04:15:32;95871.78;;;11.10;nan
70072;BME280;57434;42.794;23.302;2023-05-09T04:16:34;95989.97;;;11.87;nan
70072;BME280;57434;42.794;23.302;2023-05-09T04:17:36;95898.88;;;11.33;nan
70072;BME280;57434;42.794;23.302;2023-05-09T04:18:38;95993.53;;;11.82;nan
70072;BME280;57434;42.794;23.302;2023-05-09T04:19:40;96019.63;;;11.88;nan
70072;BME280;57434;42.794;23.302;2023-05-09T04:20:42;96025.06;;;11.92;nan
70072;BME280;57434;42.794;23.302;2023-05-09T04:21:43;96009.44;;;11.91;nan
70072;BME280;57434;42.794;23.302;2023-05-09T04:22:45;95986.19;;;11.70;nan
70072;BME280;57434;42.794;23.302;2023-05-09T04:23:47;95986.28;;;11.76;nan
70072;BME280;57434;42.794;23.302;2023-05-09T04:24:49;95886.47;;;11.19;nan
70072;BME280;57434;42.794;23.302;2023-05-09T04:41:16;96001.28;;;11.93;nan
70072;BME280;57434;42.794;23.302;2023-05-09T04:43:19;96006.44;;;11.95;nan
70072;BME280;57434;42.794;23.302;2023-05-09T04:44:21;96004.75;;;12.03;nan
70072;BME280;57434;42.794;23.302;2023-05-09T04:45:23;95993.84;;;11.90;nan
70072;BME280;57434;42.794;23.302;2023-05-09T04:46:25;95988.56;;;11.98;nan
70072;BME280;57434;42.794;23.302;2023-05-09T04:52:35;95902.25;;;11.58;nan
70072;BME280;57434;42.794;23.302;2023-05-09T04:53:36;95910.41;;;11.56;nan
70072;BME280;57434;42.794;23.302;2023-05-09T04:54:38;95889.34;;;11.45;nan
70072;BME280;57434;42.794;23.302;2023-05-09T04:55:40;96003.97;;;12.23;nan
70072;BME280;57434;42.794;23.302;2023-05-09T04:56:42;96005.63;;;12.14;nan
70072;BME280;57434;42.794;23.302;2023-05-09T04:58:46;95887.94;;;11.56;nan
70072;BME280;57434;42.794;23.302;2023-05-09T04:59:48;96004.81;;;12.29;nan
70072;BME280;57434;42.794;23.302;2023-05-09T05:12:22;95980.41;;;12.46;nan
70072;BME280;57434;42.794;23.302;2023-05-09T05:14:25;95889.66;;;11.99;nan
70072;BME280;57434;42.794;23.302;2023-05-09T05:16:29;95924.38;;;12.16;nan
70072;BME280;57434;42.794;23.302;2023-05-09T05:21:37;95862.69;;;11.87;nan
70072;BME280;57434;42.794;23.302;2023-05-09T05:22:39;96008.44;;;12.86;nan
70072;BME280;57434;42.794;23.302;2023-05-09T05:23:41;95993.38;;;12.64;nan
70072;BME280;57434;42.794;23.302;2023-05-09T05:24:43;95996.06;;;12.78;nan
70072;BME280;57434;42.794;23.302;2023-05-09T05:25:45;95878.69;;;12.01;nan
70072;BME280;57434;42.794;23.302;2023-05-09T05:26:47;95913.41;;;12.18;nan
70072;BME280;57434;42.794;23.302;2023-05-09T05:28:50;95929.03;;;12.51;nan
70072;BME280;57434;42.794;23.302;2023-05-09T05:29:52;95900.50;;;12.32;nan
70072;BME280;57434;42.794;23.302;2023-05-09T05:31:56;95991.59;;;12.92;nan
70072;BME280;57434;42.794;23.302;2023-05-09T05:32:57;95966.81;;;12.70;nan
70072;BME280;57434;42.794;23.302;2023-05-09T05:34:00;96030.25;;;12.97;nan
70072;BME280;57434;42.794;23.302;2023-05-09T05:36:04;95937.81;;;12.59;nan
70072;BME280;57434;42.794;23.302;2023-05-09T05:42:14;95887.97;;;12.70;nan
70072;BME280;57434;42.794;23.302;2023-05-09T05:47:22;95883.53;;;12.95;nan
70072;BME280;57434;42.794;23.302;2023-05-09T05:48:24;96004.78;;;13.97;nan
70072;BME280;57434;42.794;23.302;2023-05-09T05:49:26;96020.63;;;13.83;nan
70072;BME280;57434;42.794;23.302;2023-05-09T05:50:28;96026.31;;;13.95;nan
70072;BME280;57434;42.794;23.302;2023-05-09T05:51:30;95936.72;;;13.19;nan
70072;BME280;57434;42.794;23.302;2023-05-09T05:52:31;96015.03;;;13.46;nan
70072;BME280;57434;42.794;23.302;2023-05-09T05:53:33;95904.94;;;12.76;nan
70072;BME280;57434;42.794;23.302;2023-05-09T05:54:35;96006.88;;;13.54;nan
70072;BME280;57434;42.794;23.302;2023-05-09T05:55:37;95981.38;;;13.37;nan
70072;BME280;57434;42.794;23.302;2023-05-09T05:56:39;95994.47;;;13.40;nan
70072;BME280;57434;42.794;23.302;2023-05-09T05:57:41;95872.34;;;12.64;nan
70072;BME280;57434;42.794;23.302;2023-05-09T05:58:43;95906.69;;;12.73;nan
70072;BME280;57434;42.794;23.302;2023-05-09T05:59:48;95887.22;;;12.70;nan
70072;BME280;57434;42.794;23.302;2023-05-09T06:00:54;96010.84;;;13.36;nan
70072;BME280;57434;42.794;23.302;2023-05-09T06:01:55;95999.66;;;13.42;nan
70072;BME280;57434;42.794;23.302;2023-05-09T06:02:57;95997.13;;;13.49;nan
70072;BME280;57434;42.794;23.302;2023-05-09T06:03:59;96007.75;;;13.71;nan
70072;BME280;57434;42.794;23.302;2023-05-09T06:05:02;96004.97;;;13.77;nan
70072;BME280;57434;42.794;23.302;2023-05-09T06:06:04;95992.66;;;13.80;nan
70072;BME280;57434;42.794;23.302;2023-05-09T06:07:07;95986.28;;;13.85;nan
70072;BME280;57434;42.794;23.302;2023-05-09T06:08:08;95930.94;;;13.39;nan
70072;BME280;57434;42.794;23.302;2023-05-09T06:09:10;96017.09;;;13.94;nan
70072;BME280;57434;42.794;23.302;2023-05-09T06:10:12;96002.78;;;14.14;nan
70072;BME280;57434;42.794;23.302;2023-05-09T06:11:15;96016.94;;;14.26;nan
70072;BME280;57434;42.794;23.302;2023-05-09T06:12:17;95904.72;;;13.76;nan
70072;BME280;57434;42.794;23.302;2023-05-09T06:13:19;95969.00;;;14.31;nan
70072;BME280;57434;42.794;23.302;2023-05-09T06:14:21;96002.38;;;14.49;nan
70072;BME280;57434;42.794;23.302;2023-05-09T06:15:23;96000.06;;;14.42;nan
70072;BME280;57434;42.794;23.302;2023-05-09T06:16:25;95993.38;;;14.40;nan
70072;BME280;57434;42.794;23.302;2023-05-09T06:17:27;96019.31;;;14.49;nan
70072;BME280;57434;42.794;23.302;2023-05-09T06:18:29;95916.53;;;13.85;nan
70072;BME280;57434;42.794;23.302;2023-05-09T06:19:31;96033.94;;;14.48;nan
70072;BME280;57434;42.794;23.302;2023-05-09T06:20:33;95891.09;;;13.63;nan
70072;BME280;57434;42.794;23.302;2023-05-09T06:21:35;95986.41;;;14.24;nan
70072;BME280;57434;42.794;23.302;2023-05-09T06:22:37;96035.22;;;14.41;nan
70072;BME280;57434;42.794;23.302;2023-05-09T06:23:39;95898.25;;;13.59;nan
70072;BME280;57434;42.794;23.302;2023-05-09T06:24:51;95906.72;;;13.64;nan
70072;BME280;57434;42.794;23.302;2023-05-09T06:25:53;95990.50;;;14.17;nan
70072;BME280;57434;42.794;23.302;2023-05-09T06:26:54;96013.13;;;14.29;nan
70072;BME280;57434;42.794;23.302;2023-05-09T06:27:57;96005.88;;;14.16;nan
70072;BME280;57434;42.794;23.302;2023-05-09T06:28:58;96015.16;;;14.22;nan
70072;BME280;57434;42.794;23.302;2023-05-09T06:30:00;95923.63;;;13.64;nan
70072;BME280;57434;42.794;23.302;2023-05-09T06:31:09;95916.16;;;13.55;nan
70072;BME280;57434;42.794;23.302;2023-05-09T06:32:10;96003.22;;;13.90;nan
70072;BME280;57434;42.794;23.302;2023-05-09T06:33:12;95902.47;;;13.37;nan
70072;BME280;57434;42.794;23.302;2023-05-09T06:34:14;95905.63;;;13.50;nan
70072;BME280;57434;42.794;23.302;2023-05-09T06:35:16;96006.09;;;14.02;nan
70072;BME280;57434;42.794;23.302;2023-05-09T06:36:18;95913.25;;;13.39;nan
70072;BME280;57434;42.794;23.302;2023-05-09T06:37:20;95883.41;;;13.15;nan
70072;BME280;57434;42.794;23.302;2023-05-09T06:38:22;96002.22;;;13.94;nan
70072;BME280;57434;42.794;23.302;2023-05-09T06:39:24;96030.16;;;13.92;nan
70072;BME280;57434;42.794;23.302;2023-05-09T06:40:25;95990.00;;;13.60;nan
70072;BME280;57434;42.794;23.302;2023-05-09T06:41:27;95907.72;;;13.13;nan
70072;BME280;57434;42.794;23.302;2023-05-09T06:42:29;96017.75;;;13.78;nan
70072;BME280;57434;42.794;23.302;2023-05-09T06:43:31;96017.63;;;13.98;nan
70072;BME280;57434;42.794;23.302;2023-05-09T06:44:33;96008.41;;;14.03;nan
70072;BME280;57434;42.794;23.302;2023-05-09T06:45:35;96020.75;;;14.17;nan
70072;BME280;57434;42.794;23.302;2023-05-09T06:46:37;95972.91;;;13.80;nan
70072;BME280;57434;42.794;23.302;2023-05-09T06:47:39;95925.91;;;13.49;nan
70072;BME280;57434;42.794;23.302;2023-05-09T06:48:41;96016.63;;;14.07;nan
70072;BME280;57434;42.794;23.302;2023-05-09T06:49:43;95994.31;;;14.03;nan
70072;BME280;57434;42.794;23.302;2023-05-09T06:50:45;95940.88;;;13.83;nan
70072;BME280;57434;42.794;23.302;2023-05-09T06:51:47;96011.09;;;14.40;nan
70072;BME280;57434;42.794;23.302;2023-05-09T06:52:48;96006.22;;;14.41;nan
70072;BME280;57434;42.794;23.302;2023-05-09T06:53:50;96034.75;;;14.54;nan
70072;BME280;57434;42.794;23.302;2023-05-09T06:54:52;95981.84;;;14.43;nan
70072;BME280;57434;42.794;23.302;2023-05-09T06:55:54;96016.53;;;14.55;nan
70072;BME280;57434;42.794;23.302;2023-05-09T06:56:56;96002.16;;;14.64;nan
70072;BME280;57434;42.794;23.302;2023-05-09T06:57:58;96030.94;;;14.68;nan
70072;BME280;57434;42.794;23.302;2023-05-09T06:59:00;96029.69;;;14.80;nan
70072;BME280;57434;42.794;23.302;2023-05-09T07:00:02;95882.00;;;14.30;nan
70072;BME280;57434;42.794;23.302;2023-05-09T07:01:04;95982.91;;;15.41;nan
70072;BME280;57434;42.794;23.302;2023-05-09T07:02:06;95918.16;;;15.26;nan
70072;BME280;57434;42.794;23.302;2023-05-09T07:03:08;95997.38;;;16.06;nan
70072;BME280;57434;42.794;23.302;2023-05-09T07:04:10;95956.50;;;15.96;nan
70072;BME280;57434;42.794;23.302;2023-05-09T07:05:12;96010.91;;;16.36;nan
70072;BME280;57434;42.794;23.302;2023-05-09T07:06:14;96000.97;;;16.59;nan
70072;BME280;57434;42.794;23.302;2023-05-09T07:07:16;95999.94;;;16.62;nan
70072;BME280;57434;42.794;23.302;2023-05-09T07:08:18;95963.75;;;16.44;nan
70072;BME280;57434;42.794;23.302;2023-05-09T07:09:20;96000.47;;;16.55;nan
70072;BME280;57434;42.794;23.302;2023-05-09T07:10:22;95876.00;;;15.97;nan
70072;BME280;57434;42.794;23.302;2023-05-09T07:11:24;95997.72;;;16.44;nan
70072;BME280;57434;42.794;23.302;2023-05-09T07:12:25;95996.47;;;16.39;nan
70072;BME280;57434;42.794;23.302;2023-05-09T07:13:27;95978.47;;;16.37;nan
70072;BME280;57434;42.794;23.302;2023-05-09T07:14:29;95873.31;;;15.69;nan
70072;BME280;57434;42.794;23.302;2023-05-09T07:15:31;95896.78;;;16.05;nan
70072;BME280;57434;42.794;23.302;2023-05-09T07:16:42;95981.63;;;16.63;nan
70072;BME280;57434;42.794;23.302;2023-05-09T07:17:44;95987.41;;;16.87;nan
70072;BME280;57434;42.794;23.302;2023-05-09T07:18:46;96003.97;;;17.13;nan
70072;BME280;57434;42.794;23.302;2023-05-09T07:19:47;95967.53;;;16.93;nan
70072;BME280;57434;42.794;23.302;2023-05-09T07:20:49;95910.16;;;16.81;nan
70072;BME280;57434;42.794;23.302;2023-05-09T07:21:51;95984.44;;;17.64;nan
70072;BME280;57434;42.794;23.302;2023-05-09T07:22:53;95984.88;;;17.44;nan
70072;BME280;57434;42.794;23.302;2023-05-09T07:23:55;95987.75;;;17.68;nan
70072;BME280;57434;42.794;23.302;2023-05-09T07:24:57;95883.34;;;17.12;nan
70072;BME280;57434;42.794;23.302;2023-05-09T07:25:59;95910.78;;;17.29;nan
70072;BME280;57434;42.794;23.302;2023-05-09T07:27:02;95992.34;;;17.96;nan
70072;BME280;57434;42.794;23.302;2023-05-09T07:28:04;95873.47;;;17.43;nan
70072;BME280;57434;42.794;23.302;2023-05-09T07:29:06;95993.84;;;18.21;nan
70072;BME280;57434;42.794;23.302;2023-05-09T07:30:08;95998.28;;;18.16;nan
70072;BME280;57434;42.794;23.302;2023-05-09T07:31:10;96015.19;;;18.27;nan
70072;BME280;57434;42.794;23.302;2023-05-09T07:32:12;96014.75;;;17.99;nan
70072;BME280;57434;42.794;23.302;2023-05-09T07:33:14;95866.22;;;16.75;nan
70072;BME280;57434;42.794;23.302;2023-05-09T07:34:16;95880.47;;;16.58;nan
70072;BME280;57434;42.794;23.302;2023-05-09T07:35:18;95903.47;;;16.49;nan
70072;BME280;57434;42.794;23.302;2023-05-09T07:36:20;95967.00;;;16.95;nan
70072;BME280;57434;42.794;23.302;2023-05-09T07:37:22;96001.78;;;16.95;nan
70072;BME280;57434;42.794;23.302;2023-05-09T07:38:24;95899.19;;;15.90;nan
70072;BME280;57434;42.794;23.302;2023-05-09T07:39:26;95909.59;;;15.54;nan
70072;BME280;57434;42.794;23.302;2023-05-09T07:40:28;95934.97;;;15.82;nan
70072;BME280;57434;42.794;23.302;2023-05-09T07:41:30;96025.78;;;16.47;nan
70072;BME280;57434;42.794;23.302;2023-05-09T07:42:32;95908.34;;;16.13;nan
70072;BME280;57434;42.794;23.302;2023-05-09T07:43:34;95990.19;;;16.99;nan
70072;BME280;57434;42.794;23.302;2023-05-09T07:44:36;95870.91;;;15.90;nan
70072;BME280;57434;42.794;23.302;2023-05-09T07:45:38;95950.09;;;16.42;nan
70072;BME280;57434;42.794;23.302;2023-05-09T07:46:40;95999.19;;;16.56;nan
70072;BME280;57434;42.794;23.302;2023-05-09T07:47:42;95908.25;;;15.72;nan
70072;BME280;57434;42.794;23.302;2023-05-09T07:48:43;96011.66;;;16.36;nan
70072;BME280;57434;42.794;23.302;2023-05-09T07:49:45;95998.41;;;16.09;nan
70072;BME280;57434;42.794;23.302;2023-05-09T07:50:47;95903.50;;;15.33;nan
70072;BME280;57434;42.794;23.302;2023-05-09T07:51:49;95892.72;;;15.32;nan
70072;BME280;57434;42.794;23.302;2023-05-09T07:52:51;96001.06;;;15.90;nan
70072;BME280;57434;42.794;23.302;2023-05-09T07:53:53;95892.47;;;15.18;nan
70072;BME280;57434;42.794;23.302;2023-05-09T07:54:55;96012.13;;;15.88;nan
70072;BME280;57434;42.794;23.302;2023-05-09T07:55:57;95873.78;;;14.87;nan
70072;BME280;57434;42.794;23.302;2023-05-09T07:56:59;95971.03;;;15.53;nan
70072;BME280;57434;42.794;23.302;2023-05-09T07:58:01;95983.66;;;15.64;nan
70072;BME280;57434;42.794;23.302;2023-05-09T07:59:03;96010.09;;;15.72;nan
70072;BME280;57434;42.794;23.302;2023-05-09T08:00:06;95931.53;;;15.20;nan
70072;BME280;57434;42.794;23.302;2023-05-09T08:01:08;95894.31;;;14.94;nan
70072;BME280;57434;42.794;23.302;2023-05-09T08:02:10;95984.91;;;15.57;nan
70072;BME280;57434;42.794;23.302;2023-05-09T08:03:11;95891.53;;;14.77;nan
70072;BME280;57434;42.794;23.302;2023-05-09T08:04:14;95924.38;;;15.02;nan
70072;BME280;57434;42.794;23.302;2023-05-09T08:05:16;96004.97;;;15.53;nan
70072;BME280;57434;42.794;23.302;2023-05-09T08:06:18;95989.34;;;15.36;nan
70072;BME280;57434;42.794;23.302;2023-05-09T08:07:20;96031.97;;;15.54;nan
70072;BME280;57434;42.794;23.302;2023-05-09T08:08:22;96013.47;;;15.53;nan
70072;BME280;57434;42.794;23.302;2023-05-09T08:09:24;96019.94;;;15.37;nan
70072;BME280;57434;42.794;23.302;2023-05-09T08:10:26;96035.31;;;15.42;nan
70072;BME280;57434;42.794;23.302;2023-05-09T08:11:27;95996.78;;;15.22;nan
70072;BME280;57434;42.794;23.302;2023-05-09T08:12:29;95916.69;;;14.69;nan
70072;BME280;57434;42.794;23.302;2023-05-09T08:13:31;95883.28;;;14.40;nan
70072;BME280;57434;42.794;23.302;2023-05-09T08:14:33;95924.09;;;14.50;nan
70072;BME280;57434;42.794;23.302;2023-05-09T08:15:35;95885.59;;;14.24;nan
70072;BME280;57434;42.794;23.302;2023-05-09T08:16:37;95903.06;;;14.29;nan
70072;BME280;57434;42.794;23.302;2023-05-09T08:17:39;95932.81;;;14.46;nan
70072;BME280;57434;42.794;23.302;2023-05-09T08:18:41;95905.34;;;14.36;nan
70072;BME280;57434;42.794;23.302;2023-05-09T08:19:43;95915.88;;;14.41;nan
70072;BME280;57434;42.794;23.302;2023-05-09T08:20:45;96013.78;;;14.83;nan
70072;BME280;57434;42.794;23.302;2023-05-09T08:51:50;95910.28;;;17.00;nan
70072;BME280;57434;42.794;23.302;2023-05-09T08:52:53;95900.66;;;17.33;nan
70072;BME280;57434;42.794;23.302;2023-05-09T08:53:55;96005.06;;;18.32;nan
70072;BME280;57434;42.794;23.302;2023-05-09T08:55:01;95912.69;;;17.88;nan
70072;BME280;57434;42.794;23.302;2023-05-09T08:56:04;95985.53;;;18.66;nan
70072;BME280;57434;42.794;23.302;2023-05-09T08:57:06;96024.59;;;18.79;nan
70072;BME280;57434;42.794;23.302;2023-05-09T08:58:08;96018.75;;;18.71;nan
70072;BME280;57434;42.794;23.302;2023-05-09T08:59:10;95946.03;;;18.06;nan
70072;BME280;57434;42.794;23.302;2023-05-09T09:00:14;95984.94;;;18.11;nan
70072;BME280;57434;42.794;23.302;2023-05-09T09:01:19;95974.94;;;18.05;nan
70072;BME280;57434;42.794;23.302;2023-05-09T09:02:21;95971.13;;;17.78;nan
70072;BME280;57434;42.794;23.302;2023-05-09T09:03:24;95886.84;;;17.00;nan
70072;BME280;57434;42.794;23.302;2023-05-09T09:04:25;96024.94;;;17.89;nan
70072;BME280;57434;42.794;23.302;2023-05-09T09:05:29;96004.94;;;18.00;nan
70072;BME280;57434;42.794;23.302;2023-05-09T09:06:35;96002.81;;;18.06;nan
70072;BME280;57434;42.794;23.302;2023-05-09T09:07:39;95904.69;;;17.43;nan
70072;BME280;57434;42.794;23.302;2023-05-09T09:08:43;95895.28;;;17.97;nan
70072;BME280;57434;42.794;23.302;2023-05-09T09:09:46;95878.25;;;17.78;nan
70072;BME280;57434;42.794;23.302;2023-05-09T09:10:49;95885.53;;;17.49;nan
70072;BME280;57434;42.794;23.302;2023-05-09T09:11:51;95904.25;;;17.34;nan
70072;BME280;57434;42.794;23.302;2023-05-09T09:12:54;95980.81;;;17.64;nan
70072;BME280;57434;42.794;23.302;2023-05-09T09:14:00;95973.22;;;17.47;nan
70072;BME280;57434;42.794;23.302;2023-05-09T09:15:04;95875.56;;;16.94;nan
70072;BME280;57434;42.794;23.302;2023-05-09T09:16:19;95867.81;;;16.95;nan
70072;BME280;57434;42.794;23.302;2023-05-09T09:17:24;96003.84;;;17.84;nan
70072;BME280;57434;42.794;23.302;2023-05-09T09:18:28;95987.72;;;17.44;nan
70072;BME280;57434;42.794;23.302;2023-05-09T09:19:33;95973.16;;;17.29;nan
70072;BME280;57434;42.794;23.302;2023-05-09T09:20:58;95997.91;;;17.58;nan
70072;BME280;57434;42.794;23.302;2023-05-09T09:22:03;96004.00;;;17.68;nan
70072;BME280;57434;42.794;23.302;2023-05-09T09:23:07;95875.31;;;17.16;nan
70072;BME280;57434;42.794;23.302;2023-05-09T09:24:13;95900.13;;;17.59;nan
70072;BME280;57434;42.794;23.302;2023-05-09T09:25:18;95991.47;;;18.44;nan
70072;BME280;57434;42.794;23.302;2023-05-09T09:26:20;95919.41;;;18.09;nan
70072;BME280;57434;42.794;23.302;2023-05-09T09:27:21;96011.03;;;18.28;nan
70072;BME280;57434;42.794;23.302;2023-05-09T09:28:23;95994.38;;;18.19;nan
70072;BME280;57434;42.794;23.302;2023-05-09T09:29:26;96004.81;;;18.11;nan
70072;BME280;57434;42.794;23.302;2023-05-09T09:30:28;95865.31;;;17.34;nan
70072;BME280;57434;42.794;23.302;2023-05-09T09:31:30;95964.72;;;17.96;nan
70072;BME280;57434;42.794;23.302;2023-05-09T09:32:33;95964.63;;;17.83;nan
70072;BME280;57434;42.794;23.302;2023-05-09T09:33:35;95914.91;;;17.27;nan
70072;BME280;57434;42.794;23.302;2023-05-09T09:34:37;95952.19;;;17.37;nan
70072;BME280;57434;42.794;23.302;2023-05-09T09:35:39;95885.53;;;17.01;nan
70072;BME280;57434;42.794;23.302;2023-05-09T09:36:41;95994.66;;;17.73;nan
70072;BME280;57434;42.794;23.302;2023-05-09T09:37:43;95982.00;;;17.98;nan
70072;BME280;57434;42.794;23.302;2023-05-09T09:38:45;95981.69;;;18.02;nan
70072;BME280;57434;42.794;23.302;2023-05-09T09:39:56;95997.38;;;18.27;nan
70072;BME280;57434;42.794;23.302;2023-05-09T09:40:58;95986.31;;;18.05;nan
70072;BME280;57434;42.794;23.302;2023-05-09T09:42:10;95991.38;;;18.12;nan
70072;BME280;57434;42.794;23.302;2023-05-09T09:43:13;95895.66;;;17.45;nan
70072;BME280;57434;42.794;23.302;2023-05-09T09:44:19;96003.00;;;18.33;nan
70072;BME280;57434;42.794;23.302;2023-05-09T09:45:22;95986.59;;;18.01;nan
70072;BME280;57434;42.794;23.302;2023-05-09T09:46:24;95968.31;;;17.97;nan
70072;BME280;57434;42.794;23.302;2023-05-09T09:47:32;95977.84;;;17.99;nan
70072;BME280;57434;42.794;23.302;2023-05-09T09:48:34;95945.25;;;17.63;nan
70072;BME280;57434;42.794;23.302;2023-05-09T09:49:37;95971.28;;;18.10;nan
70072;BME280;57434;42.794;23.302;2023-05-09T09:50:46;95975.59;;;18.35;nan
70072;BME280;57434;42.794;23.302;2023-05-09T09:51:54;95983.69;;;19.01;nan
70072;BME280;57434;42.794;23.302;2023-05-09T09:52:56;95977.69;;;19.04;nan
70072;BME280;57434;42.794;23.302;2023-05-09T09:54:01;95861.13;;;18.40;nan
70072;BME280;57434;42.794;23.302;2023-05-09T09:55:03;95969.59;;;18.95;nan
70072;BME280;57434;42.794;23.302;2023-05-09T09:56:05;95853.47;;;18.16;nan
70072;BME280;57434;42.794;23.302;2023-05-09T09:57:07;95991.88;;;18.91;nan
70072;BME280;57434;42.794;23.302;2023-05-09T09:58:16;95894.44;;;18.21;nan
70072;BME280;57434;42.794;23.302;2023-05-09T09:59:20;95976.06;;;18.77;nan
70072;BME280;57434;42.794;23.302;2023-05-09T10:00:27;95880.78;;;18.19;nan
70072;BME280;57434;42.794;23.302;2023-05-09T10:01:29;95882.56;;;18.04;nan
70072;BME280;57434;42.794;23.302;2023-05-09T10:02:31;95980.34;;;18.83;nan
70072;BME280;57434;42.794;23.302;2023-05-09T10:04:38;95962.22;;;18.86;nan
70072;BME280;57434;42.794;23.302;2023-05-09T10:05:41;95867.81;;;18.24;nan
70072;BME280;57434;42.794;23.302;2023-05-09T10:07:06;95963.38;;;18.78;nan
70072;BME280;57434;42.794;23.302;2023-05-09T10:08:08;95863.13;;;17.89;nan
70072;BME280;57434;42.794;23.302;2023-05-09T10:09:10;95990.06;;;18.56;nan
70072;BME280;57434;42.794;23.302;2023-05-09T10:10:12;95961.88;;;18.58;nan
70072;BME280;57434;42.794;23.302;2023-05-09T10:11:14;95898.50;;;17.88;nan
70072;BME280;57434;42.794;23.302;2023-05-09T10:12:16;95886.75;;;17.59;nan
70072;BME280;57434;42.794;23.302;2023-05-09T10:13:19;95950.06;;;17.92;nan
70072;BME280;57434;42.794;23.302;2023-05-09T10:14:24;95965.66;;;18.04;nan
70072;BME280;57434;42.794;23.302;2023-05-09T10:15:27;95881.66;;;17.28;nan
70072;BME280;57434;42.794;23.302;2023-05-09T10:16:34;95884.81;;;17.43;nan
70072;BME280;57434;42.794;23.302;2023-05-09T10:17:44;95964.00;;;18.14;nan
70072;BME280;57434;42.794;23.302;2023-05-09T10:18:46;95965.00;;;18.36;nan
70072;BME280;57434;42.794;23.302;2023-05-09T10:19:49;95903.72;;;18.21;nan
70072;BME280;57434;42.794;23.302;2023-05-09T10:20:52;95852.47;;;17.76;nan
70072;BME280;57434;42.794;23.302;2023-05-09T10:21:56;95833.69;;;17.30;nan
70072;BME280;57434;42.794;23.302;2023-05-09T10:23:01;95852.06;;;17.23;nan
70072;BME280;57434;42.794;23.302;2023-05-09T10:24:03;95971.00;;;17.89;nan
70072;BME280;57434;42.794;23.302;2023-05-09T10:25:19;95926.03;;;17.25;nan
70072;BME280;57434;42.794;23.302;2023-05-09T10:26:23;95964.88;;;17.60;nan
70072;BME280;57434;42.794;23.302;2023-05-09T10:27:28;95966.81;;;17.71;nan
70072;BME280;57434;42.794;23.302;2023-05-09T10:28:33;95957.91;;;17.86;nan